Time;durP1;ratioP1;P1;durP2;ratioP2;P2;SDS_P1;SDS_P2;PMS_P1;PMS_P2;Temp;Humidity;BMP_temperature;BMP_pressure;BME280_temperature;BME280_humidity;BME280_pressure;Samples;Min_cycle;Max_cycle;Signal;HPM_P1;HPM_P2
2022/04/07 00:00:29;;;;;;;2.50;2.30;;;;;;;11.58;92.42;96711.44;4190389;28;20639;-86
2022/04/07 00:02:32;;;;;;;3.13;2.70;;;;;;;11.53;93.03;96711.06;4153094;28;20640;-86
2022/04/07 00:04:36;;;;;;;3.70;2.53;;;;;;;11.52;92.03;96719.03;4171776;28;20636;-86
2022/04/07 00:06:39;;;;;;;3.40;2.30;;;;;;;11.45;93.59;96710.09;4169392;28;20654;-85
2022/04/07 00:08:42;;;;;;;2.80;2.47;;;;;;;11.43;92.82;96719.88;4153966;28;20721;-86
2022/04/07 00:10:48;;;;;;;4.90;2.43;;;;;;;11.37;94.03;96710.81;4169313;28;21131;-85
2022/04/07 00:12:51;;;;;;;2.37;2.13;;;;;;;11.36;93.60;96710.97;4164263;28;20710;-85
2022/04/07 00:14:54;;;;;;;3.00;2.50;;;;;;;11.36;93.95;96708.34;4187058;28;20639;-85
2022/04/07 00:16:59;;;;;;;3.63;2.77;;;;;;;11.36;93.08;96708.34;4168321;28;20640;-84
2022/04/07 00:19:02;;;;;;;2.67;2.43;;;;;;;11.30;94.76;96704.50;4172208;28;21183;-86
2022/04/07 00:21:12;;;;;;;3.40;2.37;;;;;;;11.27;94.51;96705.78;4169751;28;20689;-85
2022/04/07 00:23:15;;;;;;;3.10;2.40;;;;;;;11.30;93.81;96691.47;4168013;28;21247;-85
2022/04/07 00:25:19;;;;;;;3.17;2.37;;;;;;;11.35;92.69;96696.25;4188590;28;20683;-85
2022/04/07 00:27:24;;;;;;;2.50;2.17;;;;;;;11.39;93.55;96693.22;4189859;28;20704;-86
2022/04/07 00:29:27;;;;;;;2.60;2.00;;;;;;;11.46;93.42;96693.47;4188753;28;20645;-85
2022/04/07 00:31:38;;;;;;;3.07;2.40;;;;;;;11.49;92.71;96693.22;4170155;28;20647;-85
2022/04/07 00:33:44;;;;;;;2.30;1.80;;;;;;;11.48;91.72;96676.72;4167052;28;20669;-85
2022/04/07 00:35:48;;;;;;;2.73;2.27;;;;;;;11.50;92.02;96684.41;4185959;28;20631;-85
2022/04/07 00:37:51;;;;;;;2.73;1.90;;;;;;;11.48;92.46;96675.91;4165346;28;20665;-85
2022/04/07 00:39:54;;;;;;;2.67;1.57;;;;;;;11.50;91.57;96669.59;4188438;28;20691;-85
2022/04/07 00:41:57;;;;;;;2.33;1.87;;;;;;;11.54;89.59;96673.53;4170201;28;21284;-85
2022/04/07 00:44:02;;;;;;;2.00;1.53;;;;;;;11.61;90.21;96668.56;4185163;28;20730;-85
2022/04/07 00:46:08;;;;;;;1.87;1.50;;;;;;;11.64;89.54;96665.66;4172642;28;20658;-85
2022/04/07 00:48:12;;;;;;;2.30;1.60;;;;;;;11.58;89.23;96661.03;4154200;28;21295;-85
2022/04/07 00:50:16;;;;;;;1.87;1.43;;;;;;;11.60;89.74;96664.31;4168868;28;20645;-84
2022/04/07 00:52:20;;;;;;;2.10;1.47;;;;;;;11.62;87.32;96662.34;4151719;28;21283;-85
2022/04/07 00:54:24;;;;;;;2.37;1.30;;;;;;;11.64;88.72;96663.88;4170260;28;21012;-85
2022/04/07 00:56:27;;;;;;;1.90;1.30;;;;;;;11.67;88.67;96657.53;4160462;28;21557;-85
2022/04/07 00:58:30;;;;;;;2.03;1.40;;;;;;;11.68;87.35;96656.56;4151618;28;21525;-85
2022/04/07 01:00:35;;;;;;;2.00;1.47;;;;;;;11.64;87.55;96650.81;4152075;28;20689;-86
2022/04/07 01:02:38;;;;;;;1.87;1.50;;;;;;;11.58;88.60;96645.34;4169291;28;20633;-85
2022/04/07 01:04:42;;;;;;;1.97;1.20;;;;;;;11.52;88.23;96645.94;4177197;28;21245;-84
2022/04/07 01:06:47;;;;;;;2.00;1.23;;;;;;;11.55;88.34;96636.03;4154288;28;20724;-85
2022/04/07 01:08:50;;;;;;;1.90;1.30;;;;;;;11.56;87.30;96640.28;4169247;28;20750;-85
2022/04/07 01:10:54;;;;;;;1.97;1.70;;;;;;;11.48;87.93;96641.97;4172099;28;20672;-85
2022/04/07 01:12:57;;;;;;;2.13;1.53;;;;;;;11.48;88.22;96641.97;4169091;28;20689;-85
2022/04/07 01:15:02;;;;;;;2.60;1.40;;;;;;;11.44;88.17;96641.41;4185199;28;20648;-85
2022/04/07 01:17:07;;;;;;;2.60;2.40;;;;;;;11.35;89.07;96638.81;4170060;28;20659;-85
2022/04/07 01:19:10;;;;;;;1.90;1.50;;;;;;;11.31;88.48;96647.94;4169961;28;20651;-85
2022/04/07 01:21:15;;;;;;;1.97;1.33;;;;;;;11.29;89.85;96647.28;4185293;28;21197;-85
2022/04/07 01:23:20;;;;;;;2.20;1.73;;;;;;;11.20;88.62;96634.25;4172931;28;20647;-85
2022/04/07 01:25:25;;;;;;;2.27;1.50;;;;;;;11.16;89.62;96636.31;4186022;28;21508;-85
2022/04/07 01:27:28;;;;;;;2.43;1.73;;;;;;;11.09;90.71;96631.81;4186689;28;20701;-85
2022/04/07 01:29:31;;;;;;;1.90;1.60;;;;;;;11.07;90.13;96629.34;4172519;28;20627;-85
2022/04/07 01:31:35;;;;;;;2.47;1.50;;;;;;;11.05;90.91;96630.44;4161210;28;20658;-86
2022/04/07 01:33:38;;;;;;;2.40;1.40;;;;;;;11.04;91.30;96627.03;4167366;28;20670;-85
2022/04/07 01:35:42;;;;;;;2.80;1.47;;;;;;;11.07;90.41;96629.34;4151198;28;20715;-85
2022/04/07 01:37:46;;;;;;;2.47;1.73;;;;;;;11.05;90.26;96626.09;4168841;28;20631;-85
2022/04/07 01:39:50;;;;;;;4.67;1.40;;;;;;;11.07;91.24;96620.72;4167196;28;21004;-85
2022/04/07 01:41:55;;;;;;;1.90;1.40;;;;;;;11.07;91.62;96610.28;4155157;28;21026;-85
2022/04/07 01:43:59;;;;;;;2.43;1.60;;;;;;;11.05;91.46;96615.66;4172283;28;20920;-86
2022/04/07 01:46:02;;;;;;;2.10;1.40;;;;;;;11.06;90.54;96611.25;4172175;28;20626;-85
2022/04/07 01:48:08;;;;;;;2.33;1.73;;;;;;;11.07;91.20;96613.69;4175237;28;21261;-85
2022/04/07 01:50:13;;;;;;;2.37;1.30;;;;;;;11.11;90.77;96609.00;4185028;28;20648;-85
2022/04/07 01:52:16;;;;;;;1.90;1.30;;;;;;;11.09;91.15;96606.53;4170132;28;20664;-85
2022/04/07 01:54:20;;;;;;;1.73;1.37;;;;;;;11.09;90.99;96611.75;4191582;28;21240;-85
2022/04/07 01:56:23;;;;;;;2.00;1.20;;;;;;;11.06;91.01;96614.66;4155894;28;20771;-85
2022/04/07 01:58:28;;;;;;;2.50;1.60;;;;;;;11.03;91.61;96612.34;4157013;28;21259;-85
2022/04/07 02:00:31;;;;;;;2.37;1.20;;;;;;;10.97;91.30;96602.47;4171046;28;21450;-85
2022/04/07 02:02:35;;;;;;;2.27;1.40;;;;;;;10.98;90.55;96609.34;4172826;28;20635;-85
2022/04/07 02:04:52;;;;;;;2.53;1.13;;;;;;;11.01;90.89;96613.47;4175769;28;20660;-86
2022/04/07 02:06:55;;;;;;;1.70;1.30;;;;;;;11.03;91.17;96606.31;4185837;28;20673;-85
2022/04/07 02:08:59;;;;;;;2.00;1.40;;;;;;;11.02;91.78;96605.50;4187775;28;20674;-85
2022/04/07 02:11:02;;;;;;;2.40;1.60;;;;;;;11.07;91.16;96613.69;4155746;28;21569;-85
2022/04/07 02:13:06;;;;;;;1.80;1.30;;;;;;;11.08;91.02;96611.91;4188086;28;20771;-85
2022/04/07 02:15:12;;;;;;;1.40;1.00;;;;;;;11.09;92.39;96610.94;4172813;28;20739;-85
2022/04/07 02:17:17;;;;;;;2.43;1.43;;;;;;;11.08;91.62;96604.06;4185391;28;20648;-85
2022/04/07 02:19:22;;;;;;;2.00;1.40;;;;;;;11.05;91.80;96599.16;4173236;28;20644;-85
2022/04/07 02:21:25;;;;;;;1.97;1.20;;;;;;;11.02;93.65;96604.66;4175226;28;20633;-85
2022/04/07 02:23:28;;;;;;;1.60;1.10;;;;;;;11.01;92.11;96603.03;4174257;28;20690;-85
2022/04/07 02:25:31;;;;;;;1.50;1.20;;;;;;;11.00;92.45;96596.97;4175002;28;20645;-85
2022/04/07 02:27:37;;;;;;;1.40;1.10;;;;;;;11.01;93.18;96592.59;4190336;28;20634;-86
2022/04/07 02:29:42;;;;;;;1.57;0.90;;;;;;;11.01;93.34;96593.41;4158409;28;21186;-85
2022/04/07 02:31:46;;;;;;;1.80;1.23;;;;;;;10.98;92.62;96593.69;4158902;28;20631;-85
2022/04/07 02:33:50;;;;;;;1.80;1.20;;;;;;;10.91;92.31;96586.59;4172853;28;21288;-85
2022/04/07 02:35:53;;;;;;;1.70;1.10;;;;;;;10.85;93.26;96588.00;4155373;28;20648;-85
2022/04/07 02:37:59;;;;;;;1.50;1.07;;;;;;;10.80;92.46;96583.34;4155186;28;20654;-85
2022/04/07 02:40:03;;;;;;;1.40;0.83;;;;;;;10.83;93.64;96578.66;4158435;28;20730;-85
2022/04/07 02:42:06;;;;;;;1.70;1.00;;;;;;;10.84;92.54;96581.13;4168257;28;21098;-86
2022/04/07 02:44:11;;;;;;;1.57;1.10;;;;;;;10.78;93.61;96575.69;4164443;28;21308;-85
2022/04/07 02:46:14;;;;;;;1.43;0.90;;;;;;;10.72;93.24;96578.00;4156408;28;20640;-85
2022/04/07 02:48:19;;;;;;;2.07;1.30;;;;;;;10.75;92.27;96568.13;4188277;28;20639;-85
2022/04/07 02:50:22;;;;;;;1.93;0.93;;;;;;;10.78;92.50;96578.28;4189829;28;20630;-85
2022/04/07 02:52:25;;;;;;;1.53;1.10;;;;;;;10.79;93.63;96572.09;4168939;28;21399;-85
2022/04/07 02:54:31;;;;;;;1.97;1.10;;;;;;;10.80;94.22;96572.94;4171407;28;20656;-85
2022/04/07 02:56:34;;;;;;;1.73;1.07;;;;;;;10.81;93.56;96575.38;4170524;28;20639;-85
2022/04/07 02:58:38;;;;;;;2.33;1.10;;;;;;;10.80;94.48;96576.34;4170804;28;21105;-85
2022/04/07 03:00:41;;;;;;;1.67;1.00;;;;;;;10.78;94.72;96574.84;4189794;28;20736;-85
2022/04/07 03:02:44;;;;;;;1.80;1.23;;;;;;;10.75;95.57;96575.13;4186816;28;20729;-85
2022/04/07 03:04:49;;;;;;;1.67;1.40;;;;;;;10.73;95.68;96580.47;4186647;28;20635;-86
2022/04/07 03:06:53;;;;;;;2.20;1.40;;;;;;;10.70;95.86;96569.50;4153996;28;20649;-85
2022/04/07 03:08:56;;;;;;;1.60;1.20;;;;;;;10.66;96.34;96570.75;4172768;28;21237;-85
2022/04/07 03:11:00;;;;;;;2.40;1.10;;;;;;;10.65;95.91;96569.94;4153212;28;21064;-85
2022/04/07 03:13:03;;;;;;;1.50;1.20;;;;;;;10.63;96.68;96565.81;4173637;28;20663;-85
2022/04/07 03:15:07;;;;;;;1.90;1.37;;;;;;;10.62;97.83;96569.41;4155690;28;21000;-85
2022/04/07 03:17:21;;;;;;;1.73;1.40;;;;;;;10.64;96.72;96570.09;4187806;28;20674;-87
2022/04/07 03:19:34;;;;;;;3.97;1.33;;;;;;;10.64;96.77;96557.06;4156299;28;20646;-85
2022/04/07 03:21:43;;;;;;;2.17;1.47;;;;;;;10.58;97.48;96552.41;4155220;28;20664;-88
2022/04/07 03:24:12;;;;;;;2.17;1.40;;;;;;;10.63;96.79;96553.63;4158024;28;21442;-85
2022/04/07 03:26:35;;;;;;;2.57;1.50;;;;;;;10.61;97.76;96557.34;4170779;28;20643;-85
2022/04/07 03:28:38;;;;;;;3.20;1.57;;;;;;;10.62;97.27;96548.56;4154285;28;21245;-86
2022/04/07 03:30:41;;;;;;;2.00;1.30;;;;;;;10.62;98.12;96553.78;4170840;28;20663;-85
2022/04/07 03:32:44;;;;;;;1.70;1.30;;;;;;;10.54;96.76;96546.66;4171107;28;20639;-85
2022/04/07 03:34:48;;;;;;;1.77;1.40;;;;;;;10.51;96.47;96546.13;4153743;28;20767;-85
2022/04/07 03:36:53;;;;;;;2.00;1.40;;;;;;;10.47;97.28;96542.16;4170510;28;20643;-86
2022/04/07 03:38:56;;;;;;;1.80;1.20;;;;;;;10.44;95.96;96545.06;4188843;28;20634;-85
2022/04/07 03:40:59;;;;;;;1.30;1.00;;;;;;;10.44;94.97;96539.84;4172229;28;21556;-85
2022/04/07 03:43:04;;;;;;;2.20;1.20;;;;;;;10.43;94.90;96540.78;4171567;28;20635;-85
2022/04/07 03:45:08;;;;;;;1.60;0.90;;;;;;;10.42;94.40;96532.16;4173244;28;20681;-85
2022/04/07 03:47:14;;;;;;;1.60;1.30;;;;;;;10.35;93.87;96531.06;4168805;28;20627;-85
2022/04/07 03:49:17;;;;;;;2.13;0.90;;;;;;;10.34;95.11;96533.81;4171198;28;21024;-85
2022/04/07 03:51:21;;;;;;;2.43;1.30;;;;;;;10.37;94.03;96530.94;4170736;28;21239;-85
2022/04/07 03:53:25;;;;;;;2.20;1.33;;;;;;;10.31;93.28;96518.47;4172274;28;20743;-85
2022/04/07 03:55:28;;;;;;;2.77;1.40;;;;;;;10.35;93.18;96528.47;4172812;28;20655;-85
2022/04/07 03:57:32;;;;;;;1.60;1.17;;;;;;;10.35;94.01;96530.25;4169366;28;20672;-85
2022/04/07 03:59:38;;;;;;;1.90;1.00;;;;;;;10.32;93.04;96520.13;4171525;28;20680;-85
2022/04/07 04:01:41;;;;;;;3.00;1.27;;;;;;;10.32;92.09;96510.50;4171630;28;20656;-85
2022/04/07 04:03:44;;;;;;;2.60;1.30;;;;;;;10.31;92.07;96508.03;4154355;28;20628;-85
2022/04/07 04:05:48;;;;;;;1.47;0.97;;;;;;;10.36;92.26;96511.06;4171907;28;20631;-85
2022/04/07 04:07:51;;;;;;;2.67;1.40;;;;;;;10.39;92.58;96503.78;4186049;28;21089;-85
2022/04/07 04:09:56;;;;;;;2.17;1.00;;;;;;;10.35;91.73;96499.00;4189521;28;20636;-86
2022/04/07 04:11:59;;;;;;;1.60;1.00;;;;;;;10.39;92.02;96495.97;4170778;28;20741;-85
2022/04/07 04:14:03;;;;;;;2.20;1.07;;;;;;;10.36;91.00;96492.84;4170956;28;20658;-85
2022/04/07 04:16:06;;;;;;;2.57;1.10;;;;;;;10.34;91.91;96494.72;4170017;28;20676;-85
2022/04/07 04:18:09;;;;;;;2.27;1.20;;;;;;;10.34;90.85;96482.56;4187308;28;20737;-85
2022/04/07 04:20:13;;;;;;;2.30;1.10;;;;;;;10.34;90.70;96482.56;4170943;28;20630;-84
2022/04/07 04:22:16;;;;;;;1.60;1.07;;;;;;;10.33;90.36;96485.28;4155018;28;21036;-85
2022/04/07 04:24:20;;;;;;;1.50;1.00;;;;;;;10.35;89.42;96483.34;4166825;28;20642;-85
2022/04/07 04:26:25;;;;;;;1.57;0.97;;;;;;;10.38;90.24;96472.66;4168532;28;20756;-85
2022/04/07 04:28:28;;;;;;;2.27;1.00;;;;;;;10.38;89.86;96470.03;4178731;28;20644;-86
2022/04/07 04:30:31;;;;;;;1.60;1.00;;;;;;;10.38;89.90;96470.84;4170757;28;20652;-86
2022/04/07 04:32:35;;;;;;;1.70;1.10;;;;;;;10.41;89.44;96473.19;4151173;28;20643;-86
2022/04/07 04:34:38;;;;;;;1.33;0.90;;;;;;;10.36;89.25;96464.16;4149781;28;20679;-86
2022/04/07 04:36:41;;;;;;;1.60;1.20;;;;;;;10.38;89.07;96468.25;4168235;28;20646;-87
2022/04/07 04:38:44;;;;;;;1.83;1.13;;;;;;;10.41;88.50;96469.75;4168056;28;20643;-86
2022/04/07 04:40:48;;;;;;;2.30;1.00;;;;;;;10.38;88.68;96462.22;4186076;28;20650;-86
2022/04/07 04:42:53;;;;;;;1.50;1.10;;;;;;;10.44;88.23;96474.69;4170527;28;21098;-86
2022/04/07 04:44:56;;;;;;;1.20;0.77;;;;;;;10.42;88.59;96468.81;4152345;28;20639;-86
2022/04/07 04:46:59;;;;;;;2.47;1.40;;;;;;;10.44;89.44;96465.06;4171386;28;21281;-86
2022/04/07 04:49:02;;;;;;;2.60;1.13;;;;;;;10.44;88.70;96467.69;4170607;28;20646;-86
2022/04/07 04:51:09;;;;;;;1.53;1.10;;;;;;;10.47;88.56;96466.59;4169491;28;20631;-86
2022/04/07 04:53:12;;;;;;;1.97;1.10;;;;;;;10.45;87.55;96455.50;4166903;28;20630;-86
2022/04/07 04:55:16;;;;;;;1.97;1.00;;;;;;;10.47;87.96;96458.75;4165985;28;20719;-86
2022/04/07 04:57:19;;;;;;;1.50;1.03;;;;;;;10.45;87.55;96460.69;4186002;28;20648;-86
2022/04/07 04:59:23;;;;;;;1.57;1.10;;;;;;;10.46;88.34;96454.50;4154139;28;20642;-86
2022/04/07 05:01:27;;;;;;;1.63;1.00;;;;;;;10.42;87.26;96458.38;4187631;28;21129;-86
2022/04/07 05:03:30;;;;;;;1.30;0.93;;;;;;;10.45;88.24;96463.31;4170430;28;21256;-86
2022/04/07 05:05:34;;;;;;;1.73;0.90;;;;;;;10.43;87.31;96454.78;4153220;28;20653;-86
2022/04/07 05:07:40;;;;;;;1.60;1.10;;;;;;;10.44;86.93;96451.22;4167571;28;20673;-85
2022/04/07 05:09:44;;;;;;;2.77;1.20;;;;;;;10.45;87.33;96458.09;4166144;28;20744;-86
2022/04/07 05:11:47;;;;;;;2.13;1.00;;;;;;;10.47;87.69;96445.72;4169488;28;20621;-86
2022/04/07 05:13:52;;;;;;;1.33;0.80;;;;;;;10.50;88.04;96453.25;4171655;28;20651;-84
2022/04/07 05:15:56;;;;;;;1.57;1.10;;;;;;;10.50;88.15;96441.03;4186713;28;21235;-84
2022/04/07 05:18:00;;;;;;;2.13;0.90;;;;;;;10.51;87.04;96444.50;4153716;28;20633;-84
2022/04/07 05:20:03;;;;;;;1.93;1.00;;;;;;;10.50;86.80;96450.66;4170677;28;20630;-84
2022/04/07 05:22:09;;;;;;;1.33;1.00;;;;;;;10.52;87.89;96444.31;4155163;28;21365;-84
2022/04/07 05:24:12;;;;;;;1.43;0.90;;;;;;;10.55;87.39;96438.00;4168414;28;21269;-82
2022/04/07 05:26:15;;;;;;;2.07;0.90;;;;;;;10.55;88.13;96456.25;4156198;28;21006;-87
2022/04/07 05:28:21;;;;;;;1.20;0.87;;;;;;;10.65;86.80;96457.03;4154168;28;20626;-83
2022/04/07 05:30:27;;;;;;;1.73;0.90;;;;;;;10.64;87.14;96450.16;4158414;28;20744;-84
2022/04/07 05:32:34;;;;;;;1.90;1.17;;;;;;;10.65;87.14;96449.22;4171239;28;20733;-84
2022/04/07 05:34:38;;;;;;;1.20;0.80;;;;;;;10.68;86.59;96447.13;4169003;28;20671;-83
2022/04/07 05:36:42;;;;;;;1.20;0.90;;;;;;;10.69;85.30;96447.94;4165989;28;21260;-83
2022/04/07 05:38:45;;;;;;;2.10;1.20;;;;;;;10.72;86.94;96450.25;4167796;28;20761;-84
2022/04/07 05:40:48;;;;;;;1.20;0.90;;;;;;;10.73;87.30;96444.09;4171423;28;22762;-84
2022/04/07 05:42:51;;;;;;;1.43;0.93;;;;;;;10.76;86.40;96441.19;4182841;28;20657;-84
2022/04/07 05:44:55;;;;;;;1.87;0.90;;;;;;;10.75;85.37;96429.09;4158433;28;20710;-84
2022/04/07 05:46:58;;;;;;;1.20;0.80;;;;;;;10.77;85.87;96438.44;4170592;28;20673;-84
2022/04/07 05:49:03;;;;;;;1.23;0.80;;;;;;;10.78;86.18;96429.66;4156789;28;20674;-83
2022/04/07 05:51:06;;;;;;;1.90;1.57;;;;;;;10.80;86.07;96431.13;4167094;28;20648;-85
2022/04/07 05:53:10;;;;;;;2.10;1.00;;;;;;;10.83;85.05;96436.03;4168385;28;20680;-86
2022/04/07 05:55:13;;;;;;;2.63;1.17;;;;;;;10.87;86.25;96431.38;4151215;28;20709;-86
2022/04/07 05:57:16;;;;;;;1.20;0.80;;;;;;;10.85;85.83;96436.75;4153819;28;20639;-84
2022/04/07 05:59:20;;;;;;;1.57;1.00;;;;;;;10.83;85.65;96423.00;4169551;28;20867;-84
2022/04/07 06:01:23;;;;;;;2.10;0.90;;;;;;;10.87;86.46;96434.78;4185731;28;20642;-83
2022/04/07 06:03:27;;;;;;;1.90;0.93;;;;;;;10.90;85.65;96423.25;4167685;28;20629;-85
2022/04/07 06:05:31;;;;;;;2.00;0.80;;;;;;;10.95;86.15;96418.41;4185639;28;20648;-85
2022/04/07 06:07:35;;;;;;;1.33;0.90;;;;;;;10.91;85.99;96410.03;4165970;28;20646;-83
2022/04/07 06:09:39;;;;;;;1.47;0.90;;;;;;;10.92;85.24;96401.25;4187880;28;20659;-83
2022/04/07 06:11:42;;;;;;;1.20;0.73;;;;;;;10.97;85.38;96401.63;4164668;28;20772;-83
2022/04/07 06:13:45;;;;;;;1.77;1.03;;;;;;;11.07;85.19;96397.16;4153136;28;21225;-83
2022/04/07 06:15:49;;;;;;;1.40;0.90;;;;;;;11.16;84.81;96382.41;4154326;28;21236;-83
2022/04/07 06:17:53;;;;;;;1.70;0.80;;;;;;;11.25;84.39;96371.91;4186617;28;20633;-83
2022/04/07 06:19:56;;;;;;;1.60;1.00;;;;;;;11.40;83.35;96373.81;4166141;28;20746;-84
2022/04/07 06:22:01;;;;;;;1.60;0.90;;;;;;;11.78;84.16;96352.56;4167985;28;20633;-83
2022/04/07 06:24:05;;;;;;;1.90;0.90;;;;;;;12.16;82.11;96352.91;4169827;28;20653;-84
2022/04/07 06:26:08;;;;;;;2.03;0.80;;;;;;;12.38;79.79;96354.97;4181599;28;20627;-84
2022/04/07 06:28:12;;;;;;;2.07;0.80;;;;;;;12.53;80.75;96364.66;4171420;28;20652;-82
2022/04/07 06:30:17;;;;;;;1.40;0.90;;;;;;;12.84;79.04;96369.19;4183766;28;20634;-84
2022/04/07 06:32:23;;;;;;;2.07;0.70;;;;;;;13.15;78.27;96372.81;4176129;28;20625;-85
2022/04/07 06:34:26;;;;;;;2.93;0.80;;;;;;;13.09;77.75;96363.00;4169993;28;21227;-82
2022/04/07 06:36:29;;;;;;;1.50;0.70;;;;;;;12.85;78.36;96367.38;4185526;28;20682;-82
2022/04/07 06:38:34;;;;;;;1.60;0.90;;;;;;;12.70;78.66;96369.78;4166027;28;20676;-81
2022/04/07 06:40:38;;;;;;;1.93;0.90;;;;;;;12.47;78.78;96346.97;4173081;28;21035;-82
2022/04/07 06:42:41;;;;;;;1.67;0.70;;;;;;;12.23;78.72;96356.53;4169214;28;20669;-82
2022/04/07 06:44:44;;;;;;;2.40;1.00;;;;;;;12.08;80.40;96345.03;4166496;28;21244;-83
2022/04/07 06:46:48;;;;;;;1.40;0.77;;;;;;;12.09;78.48;96346.69;4174037;28;20654;-82
2022/04/07 06:48:51;;;;;;;1.77;0.70;;;;;;;12.03;79.12;96352.53;4155091;28;21291;-82
2022/04/07 06:50:54;;;;;;;2.60;1.37;;;;;;;11.94;81.42;96343.00;4190487;28;20637;-82
2022/04/07 06:52:58;;;;;;;1.10;0.60;;;;;;;11.88;79.21;96335.81;4158115;28;20628;-87
2022/04/07 06:55:04;;;;;;;7.90;2.10;;;;;;;11.83;79.13;96342.44;4181662;28;21134;-85
2022/04/07 06:57:07;;;;;;;2.90;0.70;;;;;;;11.76;79.83;96334.44;4179774;28;21076;-93
2022/04/07 06:59:10;;;;;;;2.47;0.60;;;;;;;11.81;80.70;96340.00;4151588;28;20669;-85
2022/04/07 07:01:14;;;;;;;1.63;0.70;;;;;;;11.80;80.82;96337.53;4137772;28;20684;-81
2022/04/07 07:03:17;;;;;;;2.40;0.70;;;;;;;11.86;80.95;96337.75;4159120;28;20724;-81
2022/04/07 07:05:21;;;;;;;2.10;0.90;;;;;;;11.84;80.09;96329.25;4140142;28;21686;-81
2022/04/07 07:07:25;;;;;;;1.10;0.70;;;;;;;11.88;81.42;96332.38;4134469;28;20924;-81
2022/04/07 07:09:29;;;;;;;2.10;0.60;;;;;;;11.89;79.78;96327.00;4134017;28;20684;-80
2022/04/07 07:11:33;;;;;;;1.13;0.60;;;;;;;11.89;79.20;96324.38;4140920;28;20629;-82
2022/04/07 07:13:37;;;;;;;3.20;0.77;;;;;;;11.85;80.24;96320.44;4132839;28;20724;-80
2022/04/07 07:15:41;;;;;;;1.30;0.70;;;;;;;11.89;79.70;96327.00;4126220;28;20685;-83
2022/04/07 07:17:44;;;;;;;2.80;0.80;;;;;;;11.84;79.84;96310.16;4139067;28;21010;-83
2022/04/07 07:19:48;;;;;;;1.17;0.50;;;;;;;11.86;80.04;96316.88;4130345;28;20681;-83
2022/04/07 07:21:52;;;;;;;2.00;0.60;;;;;;;11.87;80.05;96313.25;4138830;28;20642;-82
2022/04/07 07:23:58;;;;;;;2.30;1.40;;;;;;;11.88;80.33;96309.69;4134739;28;20687;-85
2022/04/07 07:26:01;;;;;;;1.20;0.70;;;;;;;11.85;80.02;96303.97;4135627;28;20633;-86
2022/04/07 07:28:08;;;;;;;1.33;0.70;;;;;;;11.90;78.58;96299.88;4131984;28;20761;-85
2022/04/07 07:30:13;;;;;;;2.50;0.60;;;;;;;11.89;79.43;96292.19;4127123;28;24231;-85
2022/04/07 07:32:16;;;;;;;1.20;0.40;;;;;;;11.90;78.62;96288.63;4126329;28;20618;-83
2022/04/07 07:34:19;;;;;;;1.00;0.50;;;;;;;11.88;79.31;96287.97;4145491;28;20662;-81
2022/04/07 07:36:22;;;;;;;1.00;0.40;;;;;;;11.92;80.05;96284.91;4139394;28;20709;-82
2022/04/07 07:38:26;;;;;;;1.03;0.47;;;;;;;11.99;78.20;96269.41;4132161;28;20646;-82
2022/04/07 07:40:30;;;;;;;1.77;0.50;;;;;;;12.05;78.87;96266.16;4134221;28;20653;-81
2022/04/07 07:42:34;;;;;;;1.30;0.60;;;;;;;12.10;77.99;96271.72;4149803;28;20716;-81
2022/04/07 07:44:38;;;;;;;1.90;0.70;;;;;;;12.12;78.49;96254.91;4129803;28;20633;-80
2022/04/07 07:46:42;;;;;;;1.13;0.53;;;;;;;12.11;77.25;96262.91;4150882;28;20634;-80
2022/04/07 07:48:45;;;;;;;2.80;0.60;;;;;;;12.12;76.86;96261.91;4138162;28;20653;-80
2022/04/07 07:50:49;;;;;;;1.57;0.60;;;;;;;12.12;78.50;96254.91;4128856;28;20726;-78
2022/04/07 07:52:53;;;;;;;2.97;1.67;;;;;;;12.09;77.83;96254.38;4128327;28;21204;-79
2022/04/07 07:54:56;;;;;;;1.00;0.57;;;;;;;12.04;78.39;96264.50;4133411;28;20652;-79
2022/04/07 07:56:59;;;;;;;2.23;0.70;;;;;;;12.07;77.76;96262.41;4137857;28;20768;-79
2022/04/07 07:59:03;;;;;;;1.30;0.70;;;;;;;12.11;77.86;96253.25;4133206;28;20643;-79
2022/04/07 08:01:07;;;;;;;1.13;0.60;;;;;;;12.11;78.23;96248.03;4148578;28;20724;-79
2022/04/07 08:03:11;;;;;;;2.20;0.60;;;;;;;12.10;78.56;96245.59;4133388;28;20630;-79
2022/04/07 08:05:14;;;;;;;1.30;0.63;;;;;;;12.06;78.54;96232.03;4136986;28;21374;-79
2022/04/07 08:07:18;;;;;;;1.00;0.50;;;;;;;12.05;77.58;96238.22;4135031;28;20709;-79
2022/04/07 08:09:21;;;;;;;1.67;0.50;;;;;;;12.07;78.11;96236.28;4136525;28;20661;-79
2022/04/07 08:11:24;;;;;;;0.97;0.50;;;;;;;12.12;79.43;96239.22;4127339;28;20945;-79
2022/04/07 08:13:27;;;;;;;1.93;0.80;;;;;;;12.13;77.57;96251.31;4127287;28;21224;-79
2022/04/07 08:15:32;;;;;;;1.70;0.53;;;;;;;12.17;78.41;96234.34;4130530;28;20630;-80
2022/04/07 08:17:38;;;;;;;1.20;0.60;;;;;;;12.21;77.90;96235.66;4141260;28;21012;-82
2022/04/07 08:19:42;;;;;;;1.40;0.70;;;;;;;12.18;79.10;96235.97;4146224;28;20640;-80
2022/04/07 08:21:45;;;;;;;1.93;0.67;;;;;;;12.20;78.96;96225.38;4127570;28;20708;-80
2022/04/07 08:23:49;;;;;;;1.10;0.50;;;;;;;12.20;78.50;96223.56;4134241;28;21094;-80
2022/04/07 08:25:52;;;;;;;1.10;0.60;;;;;;;12.21;76.89;96206.91;4131871;28;21224;-80
2022/04/07 08:27:56;;;;;;;2.33;0.70;;;;;;;12.24;77.44;96210.00;4128575;28;20631;-80
2022/04/07 08:29:59;;;;;;;1.50;0.63;;;;;;;12.26;78.21;96205.44;4147099;28;20644;-80
2022/04/07 08:32:02;;;;;;;1.37;0.67;;;;;;;12.34;76.79;96217.69;4128911;28;20638;-80
2022/04/07 08:34:08;;;;;;;1.10;0.60;;;;;;;12.37;77.37;96204.31;4133418;28;20705;-80
2022/04/07 08:36:12;;;;;;;1.40;0.70;;;;;;;12.49;76.96;96210.84;4142313;28;21157;-80
2022/04/07 08:38:16;;;;;;;1.50;0.60;;;;;;;12.52;77.47;96205.31;4131591;28;20746;-80
2022/04/07 08:40:24;;;;;;;1.77;0.70;;;;;;;12.59;77.10;96201.06;4130171;28;20632;-80
2022/04/07 08:42:28;;;;;;;1.80;0.70;;;;;;;12.69;77.79;96199.94;4128048;28;20649;-80
2022/04/07 08:44:32;;;;;;;3.57;1.57;;;;;;;12.67;77.51;96196.63;4133462;28;20646;-80
2022/04/07 08:46:36;;;;;;;1.43;0.43;;;;;;;12.66;76.85;96196.81;4126629;28;21092;-80
2022/04/07 08:48:42;;;;;;;1.60;0.80;;;;;;;12.62;77.73;96205.97;4144586;28;20641;-79
2022/04/07 08:50:47;;;;;;;2.80;0.80;;;;;;;12.56;76.28;96211.84;4141411;28;21279;-81
2022/04/07 08:52:50;;;;;;;9.53;5.37;;;;;;;12.58;78.50;96199.44;4145038;28;20647;-81
2022/04/07 08:54:53;;;;;;;4.27;2.43;;;;;;;12.57;76.20;96193.38;4131754;28;20659;-81
2022/04/07 08:56:57;;;;;;;1.10;0.67;;;;;;;12.49;77.46;96188.13;4127154;28;21216;-81
2022/04/07 08:59:01;;;;;;;2.13;0.90;;;;;;;12.51;78.21;96190.59;4142963;28;20645;-80
2022/04/07 09:01:05;;;;;;;1.50;0.70;;;;;;;12.52;76.70;96187.00;4114902;28;20649;-81
2022/04/07 09:03:11;;;;;;;2.20;0.87;;;;;;;12.51;77.21;96186.19;4145840;28;20653;-81
2022/04/07 09:05:17;;;;;;;1.23;0.70;;;;;;;12.56;77.36;96175.25;4132729;28;20713;-81
2022/04/07 09:07:23;;;;;;;1.30;0.60;;;;;;;12.57;76.28;96161.16;4145368;28;20708;-81
2022/04/07 09:09:32;;;;;;;1.10;0.50;;;;;;;12.58;76.13;96160.19;4136852;28;20650;-81
2022/04/07 09:11:37;;;;;;;1.87;0.60;;;;;;;12.61;75.73;96147.59;4149995;28;20629;-81
2022/04/07 09:13:44;;;;;;;1.40;0.60;;;;;;;12.66;75.42;96149.72;4117387;28;21577;-81
2022/04/07 09:15:49;;;;;;;1.30;0.70;;;;;;;12.66;77.04;96155.78;4128957;28;20671;-81
2022/04/07 09:17:54;;;;;;;1.27;0.80;;;;;;;12.65;77.01;96158.56;4129170;28;20729;-81
2022/04/07 09:19:58;;;;;;;1.50;0.80;;;;;;;12.60;77.05;96150.38;4131821;28;21002;-81
2022/04/07 09:22:06;;;;;;;1.90;0.77;;;;;;;12.62;78.51;96159.72;4124912;28;20619;-81
2022/04/07 09:24:12;;;;;;;1.47;0.70;;;;;;;12.67;76.82;96146.94;4134296;28;20639;-81
2022/04/07 09:26:17;;;;;;;3.47;0.90;;;;;;;12.69;76.89;96150.22;4121430;28;20725;-81
2022/04/07 09:28:28;;;;;;;2.07;0.70;;;;;;;12.63;77.38;96147.44;4129408;28;20622;-81
2022/04/07 09:30:37;;;;;;;1.23;0.60;;;;;;;12.68;78.12;96131.09;4136628;28;20674;-81
2022/04/07 09:32:45;;;;;;;1.80;0.70;;;;;;;12.66;76.71;96139.25;4138839;28;20656;-81
2022/04/07 09:34:52;;;;;;;1.10;0.50;;;;;;;12.71;77.49;96135.19;4133881;28;20712;-81
2022/04/07 09:37:04;;;;;;;1.90;0.40;;;;;;;12.72;75.21;96118.53;4145320;28;21130;-81
2022/04/07 09:39:07;;;;;;;1.27;0.50;;;;;;;12.76;76.19;96114.56;4131397;28;20684;-80
2022/04/07 09:41:14;;;;;;;2.57;2.07;;;;;;;12.80;77.38;96121.13;4135856;28;21006;-81
2022/04/07 09:43:18;;;;;;;1.10;0.50;;;;;;;12.81;78.55;96123.56;4126271;28;20720;-81
2022/04/07 09:45:23;;;;;;;1.90;0.60;;;;;;;12.77;80.60;96121.44;4144048;28;20640;-81